South Bend Regional Airport
KSBN : now visible

Airfield :











YOU CAN JOIN US ON...

 
LOGIN :

Register | Disclaimer

   EN    FR    IT 

 









Legend :    VFR   Marginal VFR   IFR   Intensive IFR   Very Intensive IFR
Visi :
Ceiling :
>= 8 km
>= 3000ft
5 to 8 km
1000 to 3000 ft
1500m to 5 km
500 to 1000 ft
800 to 1500m
200 to 500 ft
< 800m
< 200 ft
Symbols :   Thunderstorms  Fog  Heavy snow  Heavy precipitations  Wind > 20 kt






- Airport Elevation : 799 ft
- IATA code : SBN


KSBN - South Bend Regional

CURRENT METAR :
  • 170835Z AUTO 25007KT 6SM -SN BR SCT012 OVC043 01/M01 A2969 RMK AO2 SNB27 P0000 T00061011

EXPIRED METARs :
  • 170826Z AUTO 25006KT 8SM BKN012 OVC043 01/M01 A2970 RMK AO2 T00061011
  • 170754Z AUTO 24006KT 10SM FEW023 SCT028 OVC042 01/M01 A2969 RMK AO2 SNB28E47 SLP062 P0000 T00061011
  • 170730Z AUTO 24007KT 7SM -SN SCT019 BKN024 OVC040 01/M01 A2969 RMK AO2 SNB28 P0000 T00061011
  • 170654Z AUTO 25009KT 10SM BKN042 OVC049 01/M01 A2969 RMK AO2 UPB06E09B19E28SNE06 SLP060 P0001 T00111011
  • 170610Z AUTO 26008KT 8SM SCT017 BKN031 OVC039 01/M01 A2969 RMK AO2 UPB06E09SNE06 P0001 T00061006
  • 170602Z AUTO 27008KT 3SM -SN BR FEW012 BKN024 OVC037 01/M01 A2968 RMK AO2 P0001 T00061006
  • 170554Z AUTO 27008KT 1 1/4SM -SN BR FEW010 BKN018 OVC029 01/M01 A2968 RMK AO2 SNB28 SLP058 P0001 60005 T00061006 10017 20006 53003
  • 170544Z AUTO 27006KT 3SM -SN BR FEW010 BKN018 OVC034 01/M01 A2968 RMK AO2 SNB28 P0001 T00061006

TAF KSBN
Valid from the 17 at 06:00 until the 18 at 06:00 UTC


170535Z 1706/1806 27007KT P6SM OVC025
FM171600 23006KT 3SM -SN BR OVC007
FM171800 25006KT 1 1/2SM -SN BR OVC008
TEMPO 1718/1722 1/2SM SN FG VV006
KZAU FIR / North America



MET'MAP, your aeronautical weather chart ! - Copyright ORBIFLY December 2007 - Disclaimer

ORBIFLY MET'MAP TEAM :

Programming & Development : Alexandra Zaïnal
Concept & original design : Baudouin d'Aumeries
Assistance for programming : Marc-Olivier Méhu
Technical & hardware support : Manuel Goepfert

Contact : metmap@orbifly.com




SOURCES & CREDITS :

   NOAA       Earth
Advisory